Time;durP1;ratioP1;P1;durP2;ratioP2;P2;SDS_P1;SDS_P2;PMS_P1;PMS_P2;Temp;Humidity;BMP_temperature;BMP_pressure;BME280_temperature;BME280_humidity;BME280_pressure;Samples;Min_cycle;Max_cycle;Signal;HPM_P1;HPM_P2
2023/03/24 00:01:04;;;;;;;115.90;53.27;;;;;;;;;;4937813;29;20473;-65
2023/03/24 00:03:31;;;;;;;46.80;25.20;;;;;;;;;;4936426;29;20408;-65
2023/03/24 00:06:01;;;;;;;6.70;5.90;;;;;;;;;;4937955;29;20823;-66
2023/03/24 00:08:35;;;;;;;5.27;4.77;;;;;;;;;;4937466;29;20420;-65
2023/03/24 00:11:03;;;;;;;5.10;4.70;;;;;;;;;;4937714;29;20499;-65
2023/03/24 00:13:29;;;;;;;5.20;4.70;;;;;;;;;;4937695;29;20420;-64
2023/03/24 00:15:55;;;;;;;5.40;5.00;;;;;;;;;;4937224;29;20464;-64
2023/03/24 00:18:24;;;;;;;6.83;5.20;;;;;;;;;;4937499;29;20423;-64
2023/03/24 00:20:57;;;;;;;5.37;5.00;;;;;;;;;;4936992;29;20484;-65
2023/03/24 00:23:24;;;;;;;4.30;4.03;;;;;;;;;;4936858;29;20807;-65
2023/03/24 00:26:01;;;;;;;5.37;4.83;;;;;;;;;;4935881;29;20508;-65
2023/03/24 00:28:27;;;;;;;5.40;5.00;;;;;;;;;;4937150;29;20416;-65
2023/03/24 00:30:55;;;;;;;5.03;4.60;;;;;;;;;;4936870;29;20500;-65
2023/03/24 00:33:22;;;;;;;5.73;5.20;;;;;;;;;;4936654;29;20420;-65
2023/03/24 00:35:49;;;;;;;5.20;4.80;;;;;;;;;;4936331;29;20428;-65
2023/03/24 00:38:18;;;;;;;4.70;4.30;;;;;;;;;;4936597;29;20502;-64
2023/03/24 00:40:47;;;;;;;9.00;5.53;;;;;;;;;;4936529;29;20586;-64
2023/03/24 00:43:14;;;;;;;4.97;4.57;;;;;;;;;;4936413;29;20503;-65
2023/03/24 00:45:44;;;;;;;5.40;5.00;;;;;;;;;;4937203;29;20412;-65
2023/03/24 00:48:13;;;;;;;5.20;4.80;;;;;;;;;;4936340;29;20908;-65
2023/03/24 00:50:40;;;;;;;5.43;5.00;;;;;;;;;;4936279;29;20424;-65
2023/03/24 00:53:07;;;;;;;5.30;5.00;;;;;;;;;;4936616;29;20908;-65
2023/03/24 00:55:33;;;;;;;6.23;5.63;;;;;;;;;;4936736;29;20531;-65
2023/03/24 00:57:59;;;;;;;8.00;5.47;;;;;;;;;;4936771;29;20471;-64
2023/03/24 01:00:26;;;;;;;5.37;4.90;;;;;;;;;;4936576;29;20744;-64
2023/03/24 01:02:54;;;;;;;5.10;4.80;;;;;;;;;;4935896;29;20468;-63
2023/03/24 01:05:26;;;;;;;6.20;5.63;;;;;;;;;;4936169;29;20424;-62
2023/03/24 01:07:55;;;;;;;5.53;5.13;;;;;;;;;;4936103;29;20784;-63
2023/03/24 01:10:25;;;;;;;5.20;4.80;;;;;;;;;;4936136;29;20903;-63
2023/03/24 01:12:51;;;;;;;11.23;5.13;;;;;;;;;;4935802;29;20911;-63
2023/03/24 01:15:19;;;;;;;6.33;5.30;;;;;;;;;;4934842;29;20421;-63
2023/03/24 01:17:47;;;;;;;5.70;5.40;;;;;;;;;;4935507;29;20502;-63
2023/03/24 01:20:14;;;;;;;9.13;5.30;;;;;;;;;;4935161;29;20978;-63
2023/03/24 01:22:43;;;;;;;6.10;5.70;;;;;;;;;;4935640;29;20444;-63
2023/03/24 01:25:20;;;;;;;6.90;5.97;;;;;;;;;;4935252;29;20416;-63
2023/03/24 01:27:49;;;;;;;8.60;6.27;;;;;;;;;;4935559;29;20523;-63
2023/03/24 01:30:17;;;;;;;7.50;5.90;;;;;;;;;;4935552;29;20923;-63
2023/03/24 01:32:45;;;;;;;6.17;5.53;;;;;;;;;;4935222;29;20420;-63
2023/03/24 01:35:11;;;;;;;6.07;5.33;;;;;;;;;;4935456;29;20432;-63
2023/03/24 01:37:38;;;;;;;5.53;5.13;;;;;;;;;;4935044;29;20442;-63
2023/03/24 01:40:08;;;;;;;6.83;5.20;;;;;;;;;;4935219;29;20580;-63
2023/03/24 01:42:35;;;;;;;6.00;5.50;;;;;;;;;;4935186;29;20933;-63
2023/03/24 01:45:21;;;;;;;5.90;5.50;;;;;;;;;;4935113;29;20435;-63
2023/03/24 01:47:47;;;;;;;5.33;4.60;;;;;;;;;;4935223;29;20413;-63
2023/03/24 01:50:13;;;;;;;5.57;5.17;;;;;;;;;;4935086;29;20864;-63
2023/03/24 01:52:41;;;;;;;5.50;5.00;;;;;;;;;;4934946;29;20464;-63
2023/03/24 01:55:14;;;;;;;4.40;4.20;;;;;;;;;;4934404;29;20419;-63
2023/03/24 01:57:43;;;;;;;4.83;4.43;;;;;;;;;;4935242;29;20428;-63
2023/03/24 02:00:13;;;;;;;4.90;4.60;;;;;;;;;;4934750;29;20466;-62
2023/03/24 02:02:48;;;;;;;4.77;4.47;;;;;;;;;;4934962;29;20451;-63
2023/03/24 02:05:14;;;;;;;16.43;14.03;;;;;;;;;;4934577;29;20408;-62
2023/03/24 02:07:43;;;;;;;5.80;4.60;;;;;;;;;;4934327;29;20431;-62
2023/03/24 02:10:12;;;;;;;5.30;4.90;;;;;;;;;;4934906;29;20998;-62
2023/03/24 02:12:38;;;;;;;4.47;4.27;;;;;;;;;;4935205;29;20472;-64
2023/03/24 02:15:07;;;;;;;5.07;4.70;;;;;;;;;;4934508;29;20420;-63
2023/03/24 02:17:34;;;;;;;4.30;4.10;;;;;;;;;;4934949;29;20432;-63
2023/03/24 02:20:10;;;;;;;4.27;4.10;;;;;;;;;;4934080;29;20459;-63
2023/03/24 02:22:54;;;;;;;5.17;4.87;;;;;;;;;;4935079;29;20861;-64
2023/03/24 02:25:32;;;;;;;8.40;4.50;;;;;;;;;;4934771;29;20768;-63
2023/03/24 02:27:58;;;;;;;4.20;4.00;;;;;;;;;;4934872;29;20415;-63
2023/03/24 02:30:43;;;;;;;12.30;4.00;;;;;;;;;;4933975;29;20416;-63
2023/03/24 02:33:35;;;;;;;4.80;4.47;;;;;;;;;;4934330;29;20980;-63
2023/03/24 02:36:15;;;;;;;4.97;4.20;;;;;;;;;;4934717;29;20444;-63
2023/03/24 02:38:42;;;;;;;6.43;4.67;;;;;;;;;;4934223;29;20424;-62
2023/03/24 02:41:08;;;;;;;5.27;4.97;;;;;;;;;;4934295;29;20567;-63
2023/03/24 02:43:55;;;;;;;4.33;4.23;;;;;;;;;;4934517;29;20412;-63
2023/03/24 02:46:40;;;;;;;3.70;3.50;;;;;;;;;;4934541;29;20436;-62
2023/03/24 02:49:18;;;;;;;4.10;3.90;;;;;;;;;;4934230;29;20422;-63
2023/03/24 02:51:44;;;;;;;3.50;3.40;;;;;;;;;;4934589;29;20534;-62
2023/03/24 02:54:16;;;;;;;3.07;2.90;;;;;;;;;;4933789;29;20923;-64
2023/03/24 02:56:48;;;;;;;2.83;2.70;;;;;;;;;;4934376;29;20443;-62
2023/03/24 02:59:19;;;;;;;3.70;3.43;;;;;;;;;;4932686;29;20927;-63
2023/03/24 03:02:14;;;;;;;2.60;2.40;;;;;;;;;;4934504;29;20479;-61
2023/03/24 03:04:44;;;;;;;2.10;2.00;;;;;;;;;;4941818;28;20434;-62
2023/03/24 03:07:15;;;;;;;2.40;2.30;;;;;;;;;;4934681;29;20444;-63
2023/03/24 03:09:43;;;;;;;2.50;2.00;;;;;;;;;;4934469;29;20881;-63
2023/03/24 03:12:11;;;;;;;1.57;1.57;;;;;;;;;;4935089;29;20441;-64
2023/03/24 03:14:40;;;;;;;1.83;1.83;;;;;;;;;;4934676;29;20425;-63
2023/03/24 03:17:10;;;;;;;1.90;1.90;;;;;;;;;;4935011;29;20422;-63
2023/03/24 03:20:04;;;;;;;4.13;1.90;;;;;;;;;;4934844;29;20427;-63
2023/03/24 03:22:32;;;;;;;2.20;2.10;;;;;;;;;;4935860;28;20950;-64
2023/03/24 03:25:00;;;;;;;1.83;1.73;;;;;;;;;;4934029;29;20410;-62
2023/03/24 03:27:31;;;;;;;1.67;1.57;;;;;;;;;;4934458;29;20435;-63
2023/03/24 03:29:59;;;;;;;1.93;1.83;;;;;;;;;;4934136;29;20430;-63
2023/03/24 03:32:32;;;;;;;1.97;1.83;;;;;;;;;;4934453;29;20433;-64
2023/03/24 03:35:06;;;;;;;2.87;1.80;;;;;;;;;;4934300;29;20425;-63
2023/03/24 03:37:36;;;;;;;1.30;1.30;;;;;;;;;;4934427;29;20470;-63
2023/03/24 03:40:14;;;;;;;1.80;1.70;;;;;;;;;;4934495;29;20453;-62
2023/03/24 03:42:40;;;;;;;1.50;1.50;;;;;;;;;;4936416;29;20441;-62
2023/03/24 03:45:13;;;;;;;1.90;1.80;;;;;;;;;;4937809;29;20429;-63
2023/03/24 03:47:39;;;;;;;1.80;1.80;;;;;;;;;;4937912;29;20435;-63
2023/03/24 03:50:07;;;;;;;1.97;1.53;;;;;;;;;;4937855;29;20414;-63
2023/03/24 03:52:36;;;;;;;2.10;2.10;;;;;;;;;;4937932;29;20443;-63
2023/03/24 03:55:03;;;;;;;1.63;1.53;;;;;;;;;;4938034;29;20414;-63
2023/03/24 03:57:30;;;;;;;2.00;1.90;;;;;;;;;;4937770;29;20799;-63
2023/03/24 03:59:57;;;;;;;1.40;1.40;;;;;;;;;;4937281;29;20510;-63
2023/03/24 04:02:25;;;;;;;2.87;1.50;;;;;;;;;;4937525;29;20485;-63
2023/03/24 04:05:00;;;;;;;1.90;1.87;;;;;;;;;;4937236;29;20412;-63
2023/03/24 04:07:41;;;;;;;2.10;1.90;;;;;;;;;;4937663;29;20432;-62
2023/03/24 04:10:21;;;;;;;2.50;2.40;;;;;;;;;;4937071;29;20770;-63
2023/03/24 04:13:00;;;;;;;3.17;3.07;;;;;;;;;;4937339;29;20950;-62
2023/03/24 04:15:33;;;;;;;3.03;2.83;;;;;;;;;;4937405;29;20423;-63
2023/03/24 04:18:04;;;;;;;3.90;3.70;;;;;;;;;;4936375;29;20458;-63
2023/03/24 04:20:54;;;;;;;3.50;3.20;;;;;;;;;;4937029;29;20541;-63
2023/03/24 04:23:32;;;;;;;3.53;3.23;;;;;;;;;;4941553;28;20454;-63
2023/03/24 04:26:17;;;;;;;6.97;3.53;;;;;;;;;;4936848;29;20718;-62
2023/03/24 04:28:57;;;;;;;3.63;3.50;;;;;;;;;;4936584;29;20437;-63
2023/03/24 04:31:28;;;;;;;3.60;3.40;;;;;;;;;;4937078;29;20505;-62
2023/03/24 04:34:03;;;;;;;10.93;3.67;;;;;;;;;;4936968;29;20437;-62
2023/03/24 04:36:41;;;;;;;6.50;4.10;;;;;;;;;;4936918;29;20499;-62
2023/03/24 04:39:07;;;;;;;3.93;3.63;;;;;;;;;;4936663;29;20508;-63
2023/03/24 04:41:36;;;;;;;4.90;4.40;;;;;;;;;;4936873;29;20508;-62
2023/03/24 04:44:02;;;;;;;10.97;3.67;;;;;;;;;;4937028;29;20451;-62
2023/03/24 04:46:29;;;;;;;4.30;4.00;;;;;;;;;;4936524;29;20424;-62
2023/03/24 04:48:55;;;;;;;4.10;3.77;;;;;;;;;;4936761;29;20839;-62
2023/03/24 04:51:21;;;;;;;4.40;4.10;;;;;;;;;;4936785;29;20431;-62
2023/03/24 04:53:47;;;;;;;4.87;4.53;;;;;;;;;;4935626;29;20532;-61
2023/03/24 04:56:13;;;;;;;4.70;4.30;;;;;;;;;;4936421;29;20431;-63
2023/03/24 04:58:41;;;;;;;4.67;4.33;;;;;;;;;;4936434;29;20440;-62
2023/03/24 05:01:07;;;;;;;4.33;4.03;;;;;;;;;;4934792;29;20483;-63
2023/03/24 05:03:36;;;;;;;6.87;6.37;;;;;;;;;;4937077;29;20436;-63
2023/03/24 05:06:04;;;;;;;6.63;4.40;;;;;;;;;;4936956;29;20788;-63
2023/03/24 05:08:31;;;;;;;4.40;4.00;;;;;;;;;;4937070;29;20436;-63
2023/03/24 05:10:57;;;;;;;4.60;4.20;;;;;;;;;;4936581;29;20835;-63
2023/03/24 05:13:26;;;;;;;4.50;4.30;;;;;;;;;;4936819;29;20452;-63
2023/03/24 05:15:52;;;;;;;5.03;4.17;;;;;;;;;;4936457;29;20556;-63
2023/03/24 05:18:21;;;;;;;4.80;4.40;;;;;;;;;;4936637;29;20472;-63
2023/03/24 05:20:47;;;;;;;4.73;4.33;;;;;;;;;;4936353;29;20547;-62
2023/03/24 05:23:13;;;;;;;5.10;4.70;;;;;;;;;;4936731;29;20443;-63
2023/03/24 05:25:42;;;;;;;4.97;4.77;;;;;;;;;;4936793;29;20824;-63
2023/03/24 05:28:08;;;;;;;5.43;4.80;;;;;;;;;;4936315;29;20478;-63
2023/03/24 05:30:34;;;;;;;6.10;4.70;;;;;;;;;;4936538;29;20515;-62
2023/03/24 05:33:00;;;;;;;5.07;4.80;;;;;;;;;;4936466;29;20420;-63
2023/03/24 05:35:26;;;;;;;4.27;4.07;;;;;;;;;;4936100;29;20412;-63
2023/03/24 05:37:52;;;;;;;5.00;4.70;;;;;;;;;;4936276;29;20475;-63
2023/03/24 05:40:18;;;;;;;4.77;4.53;;;;;;;;;;4935681;29;20499;-63
2023/03/24 05:42:44;;;;;;;4.40;4.20;;;;;;;;;;4936174;29;20912;-63
2023/03/24 05:45:10;;;;;;;4.87;4.57;;;;;;;;;;4935908;29;20445;-63
2023/03/24 05:47:39;;;;;;;7.40;4.63;;;;;;;;;;4935877;29;20560;-63
2023/03/24 05:50:05;;;;;;;6.03;5.00;;;;;;;;;;4935886;29;20432;-63
2023/03/24 05:52:31;;;;;;;4.30;4.20;;;;;;;;;;4935767;29;20420;-63
2023/03/24 05:55:00;;;;;;;4.60;4.40;;;;;;;;;;4935048;29;20427;-63
2023/03/24 05:57:29;;;;;;;4.17;4.00;;;;;;;;;;4935027;29;21184;-64
2023/03/24 05:59:57;;;;;;;5.03;4.83;;;;;;;;;;4935270;29;20811;-63
2023/03/24 06:02:25;;;;;;;6.32;4.78;;;;;;;;;;4935244;29;20900;-62
2023/03/24 06:04:52;;;;;;;9.00;4.73;;;;;;;;;;4936067;29;20205;-64
2023/03/24 06:07:18;;;;;;;5.20;4.80;;;;;;;;;;4935670;29;20421;-63
2023/03/24 06:09:49;;;;;;;5.17;5.07;;;;;;;;;;4936233;29;20464;-63
2023/03/24 06:12:15;;;;;;;5.80;5.50;;;;;;;;;;4935685;29;20504;-63
2023/03/24 06:14:41;;;;;;;6.10;5.70;;;;;;;;;;4935926;29;20433;-63
2023/03/24 06:17:13;;;;;;;6.17;5.80;;;;;;;;;;4934523;29;20413;-63
2023/03/24 06:19:47;;;;;;;7.70;6.90;;;;;;;;;;4935531;29;20447;-63
2023/03/24 06:22:13;;;;;;;7.33;6.63;;;;;;;;;;4935581;29;20522;-62
2023/03/24 06:24:39;;;;;;;7.10;6.40;;;;;;;;;;4935310;29;21058;-61
2023/03/24 06:27:07;;;;;;;6.97;6.37;;;;;;;;;;4933354;29;20428;-62
2023/03/24 06:29:34;;;;;;;7.40;6.90;;;;;;;;;;4935371;29;20459;-63
2023/03/24 06:31:59;;;;;;;7.23;6.73;;;;;;;;;;4935292;29;20412;-63
2023/03/24 06:34:28;;;;;;;6.77;6.20;;;;;;;;;;4935336;29;20511;-63
2023/03/24 06:36:54;;;;;;;6.40;5.90;;;;;;;;;;4934940;29;20436;-63
2023/03/24 06:39:20;;;;;;;6.80;6.50;;;;;;;;;;4935135;29;20455;-63
2023/03/24 06:41:46;;;;;;;7.83;7.23;;;;;;;;;;4935433;29;20468;-63
2023/03/24 06:44:12;;;;;;;7.60;6.90;;;;;;;;;;4935356;29;20475;-62
2023/03/24 06:46:39;;;;;;;8.60;8.00;;;;;;;;;;4935378;29;20503;-63
2023/03/24 06:49:05;;;;;;;8.60;7.73;;;;;;;;;;4935379;29;20440;-62
2023/03/24 06:51:34;;;;;;;10.57;7.70;;;;;;;;;;4935261;29;20487;-62
2023/03/24 06:54:00;;;;;;;8.23;7.27;;;;;;;;;;4935381;29;20978;-63
2023/03/24 06:56:29;;;;;;;8.30;7.27;;;;;;;;;;4935480;29;20412;-62
2023/03/24 06:58:55;;;;;;;11.87;7.47;;;;;;;;;;4933971;29;20526;-62
2023/03/24 07:01:23;;;;;;;8.47;7.57;;;;;;;;;;4935233;29;20823;-62
2023/03/24 07:03:49;;;;;;;8.33;7.63;;;;;;;;;;4935237;29;20408;-62
2023/03/24 07:06:17;;;;;;;9.37;8.37;;;;;;;;;;4935172;29;20420;-62
2023/03/24 07:08:43;;;;;;;7.53;6.83;;;;;;;;;;4935290;29;20447;-62
2023/03/24 07:11:09;;;;;;;8.60;7.90;;;;;;;;;;4935146;29;20836;-61
2023/03/24 07:13:36;;;;;;;9.50;8.50;;;;;;;;;;4935144;29;20467;-62
2023/03/24 07:16:02;;;;;;;8.55;7.95;;;;;;;;;;4934034;29;20409;-62
2023/03/24 07:18:28;;;;;;;12.43;8.90;;;;;;;;;;4939114;29;20267;-62
2023/03/24 07:20:54;;;;;;;8.23;7.63;;;;;;;;;;4938836;29;20459;-62
2023/03/24 07:23:20;;;;;;;8.90;8.00;;;;;;;;;;4938745;29;20929;-62
2023/03/24 07:25:46;;;;;;;8.37;7.70;;;;;;;;;;4938732;29;20408;-62
2023/03/24 07:28:12;;;;;;;9.97;8.17;;;;;;;;;;4938777;29;20769;-62
2023/03/24 07:30:40;;;;;;;9.27;8.37;;;;;;;;;;4938641;29;20617;-63
2023/03/24 07:33:09;;;;;;;10.43;8.23;;;;;;;;;;4938671;29;20424;-62
2023/03/24 07:35:35;;;;;;;10.97;9.87;;;;;;;;;;4938374;29;20455;-62
2023/03/24 07:38:01;;;;;;;8.87;8.10;;;;;;;;;;4938614;29;20415;-62
2023/03/24 07:40:30;;;;;;;8.70;7.90;;;;;;;;;;4938398;29;20982;-62
2023/03/24 07:42:59;;;;;;;8.27;7.57;;;;;;;;;;4938840;29;20423;-62
2023/03/24 07:45:27;;;;;;;8.53;7.93;;;;;;;;;;4938137;29;20451;-63
2023/03/24 07:47:53;;;;;;;8.83;7.93;;;;;;;;;;4938608;29;20824;-62
2023/03/24 07:50:21;;;;;;;8.43;7.63;;;;;;;;;;4937175;29;20852;-62
2023/03/24 07:52:47;;;;;;;6.67;5.87;;;;;;;;;;4938129;29;20427;-63
2023/03/24 07:55:14;;;;;;;5.27;4.97;;;;;;;;;;4938353;29;20454;-63
2023/03/24 07:57:41;;;;;;;7.83;5.80;;;;;;;;;;4938278;29;20851;-63
2023/03/24 08:00:16;;;;;;;6.30;5.90;;;;;;;;;;4938248;29;20566;-63
2023/03/24 08:02:43;;;;;;;6.60;6.10;;;;;;;;;;4938059;29;20891;-62
2023/03/24 08:05:13;;;;;;;5.60;5.23;;;;;;;;;;4936850;29;20676;-63
2023/03/24 08:07:52;;;;;;;5.77;5.37;;;;;;;;;;4938433;29;20468;-62
2023/03/24 08:10:19;;;;;;;5.80;5.43;;;;;;;;;;4938199;29;20524;-62
2023/03/24 08:12:45;;;;;;;6.07;5.67;;;;;;;;;;4937884;29;20417;-63
2023/03/24 08:15:14;;;;;;;5.70;5.40;;;;;;;;;;4937962;29;20439;-62
2023/03/24 08:17:40;;;;;;;6.27;5.77;;;;;;;;;;4936575;29;20809;-63
2023/03/24 08:20:08;;;;;;;5.50;5.20;;;;;;;;;;4937741;29;20538;-63
2023/03/24 08:22:36;;;;;;;4.90;4.60;;;;;;;;;;4937865;29;20425;-63
2023/03/24 08:25:02;;;;;;;4.60;4.30;;;;;;;;;;4937562;29;20439;-63
2023/03/24 08:27:30;;;;;;;4.27;4.00;;;;;;;;;;4937407;29;20791;-63
2023/03/24 08:29:56;;;;;;;4.40;4.10;;;;;;;;;;4937598;29;20515;-63
2023/03/24 08:32:22;;;;;;;4.03;3.77;;;;;;;;;;4937744;29;20428;-63
2023/03/24 08:34:48;;;;;;;4.17;3.80;;;;;;;;;;4937522;29;20417;-63
2023/03/24 08:37:14;;;;;;;3.83;3.60;;;;;;;;;;4937554;29;20436;-63
2023/03/24 08:39:43;;;;;;;4.43;4.00;;;;;;;;;;4937408;29;20773;-63
2023/03/24 08:42:09;;;;;;;3.80;3.70;;;;;;;;;;4937180;29;20413;-63
2023/03/24 08:44:35;;;;;;;3.83;3.73;;;;;;;;;;4937408;29;20419;-63
2023/03/24 08:47:01;;;;;;;3.70;3.43;;;;;;;;;;4936142;29;20513;-63
2023/03/24 08:49:27;;;;;;;3.27;3.07;;;;;;;;;;4937381;29;20542;-63
2023/03/24 08:51:53;;;;;;;3.40;3.30;;;;;;;;;;4937213;29;20419;-64
2023/03/24 08:54:22;;;;;;;3.30;3.10;;;;;;;;;;4937144;29;20750;-64
2023/03/24 08:56:48;;;;;;;3.30;3.00;;;;;;;;;;4937061;29;20430;-65
2023/03/24 08:59:14;;;;;;;3.80;3.50;;;;;;;;;;4937035;29;20412;-63
2023/03/24 09:01:40;;;;;;;3.50;3.30;;;;;;;;;;4936863;29;20503;-63
2023/03/24 09:04:09;;;;;;;4.50;3.17;;;;;;;;;;4937167;29;20460;-64
2023/03/24 09:06:37;;;;;;;3.37;3.10;;;;;;;;;;4936962;29;20924;-65
2023/03/24 09:09:06;;;;;;;3.23;3.03;;;;;;;;;;4937479;29;20420;-64
2023/03/24 09:11:32;;;;;;;3.90;3.70;;;;;;;;;;4937841;29;20424;-64
2023/03/24 09:13:58;;;;;;;3.43;3.13;;;;;;;;;;4937489;29;20429;-64
2023/03/24 09:16:25;;;;;;;3.90;3.73;;;;;;;;;;4937293;29;20479;-64
2023/03/24 09:18:51;;;;;;;3.33;3.23;;;;;;;;;;4937141;29;20431;-65
2023/03/24 09:21:17;;;;;;;3.67;3.27;;;;;;;;;;4937150;29;20473;-64
2023/03/24 09:23:43;;;;;;;3.67;3.40;;;;;;;;;;4936892;29;20892;-64
2023/03/24 09:26:09;;;;;;;4.73;3.77;;;;;;;;;;4937364;29;20433;-64
2023/03/24 09:28:35;;;;;;;4.30;3.30;;;;;;;;;;4936910;29;20778;-64
2023/03/24 09:31:05;;;;;;;3.10;3.00;;;;;;;;;;4935109;29;20467;-64
2023/03/24 09:33:33;;;;;;;3.50;3.20;;;;;;;;;;4936341;29;20416;-64
2023/03/24 09:36:00;;;;;;;3.27;3.17;;;;;;;;;;4935860;29;21113;-65
2023/03/24 09:38:28;;;;;;;3.00;2.90;;;;;;;;;;4936010;29;20420;-64
2023/03/24 09:40:56;;;;;;;3.83;3.53;;;;;;;;;;4935539;29;20558;-64
2023/03/24 09:43:25;;;;;;;2.90;2.80;;;;;;;;;;4936359;29;20549;-64
2023/03/24 09:45:53;;;;;;;3.20;3.00;;;;;;;;;;4936069;29;20790;-64
2023/03/24 09:48:24;;;;;;;3.23;3.03;;;;;;;;;;4936259;29;20951;-64
2023/03/24 09:51:13;;;;;;;2.47;2.47;;;;;;;;;;4935898;29;20933;-64
2023/03/24 09:54:00;;;;;;;3.90;2.50;;;;;;;;;;4940598;28;20436;-64
2023/03/24 09:56:28;;;;;;;2.77;2.60;;;;;;;;;;4935839;29;20413;-64
2023/03/24 09:59:13;;;;;;;2.20;2.20;;;;;;;;;;4936016;29;20491;-64
2023/03/24 10:01:39;;;;;;;2.00;2.00;;;;;;;;;;4935877;29;20564;-64
2023/03/24 10:04:12;;;;;;;2.03;1.77;;;;;;;;;;4935771;29;20415;-64
2023/03/24 10:06:40;;;;;;;2.13;2.03;;;;;;;;;;4935864;29;20626;-64
2023/03/24 10:09:19;;;;;;;2.00;1.90;;;;;;;;;;4934464;29;20428;-64
2023/03/24 10:11:55;;;;;;;2.23;2.10;;;;;;;;;;4935449;29;20451;-65
2023/03/24 10:14:27;;;;;;;2.30;2.20;;;;;;;;;;4935574;29;20423;-64
2023/03/24 10:16:56;;;;;;;6.57;5.97;;;;;;;;;;4934243;29;20448;-63
2023/03/24 10:19:41;;;;;;;2.30;2.20;;;;;;;;;;4935743;29;20435;-64
2023/03/24 10:22:10;;;;;;;2.40;2.30;;;;;;;;;;4934224;29;20479;-64
2023/03/24 10:24:41;;;;;;;2.23;2.13;;;;;;;;;;4935409;29;20447;-64
2023/03/24 10:27:34;;;;;;;1.73;1.63;;;;;;;;;;4935066;29;20446;-64
2023/03/24 10:30:05;;;;;;;1.73;1.73;;;;;;;;;;4936603;28;20440;-64
2023/03/24 10:32:34;;;;;;;1.70;1.60;;;;;;;;;;4934271;29;20495;-64
2023/03/24 10:35:08;;;;;;;1.80;1.80;;;;;;;;;;4935674;29;20780;-64
2023/03/24 10:37:36;;;;;;;1.80;1.80;;;;;;;;;;4935213;29;20552;-64
2023/03/24 10:40:15;;;;;;;1.80;1.70;;;;;;;;;;4935062;29;20908;-64
2023/03/24 10:42:42;;;;;;;1.70;1.70;;;;;;;;;;4935688;29;20535;-64
2023/03/24 10:45:19;;;;;;;1.80;1.77;;;;;;;;;;4935265;29;20423;-64
2023/03/24 10:47:46;;;;;;;1.73;1.63;;;;;;;;;;4935481;29;20420;-65
2023/03/24 10:50:12;;;;;;;1.70;1.70;;;;;;;;;;4935214;29;20515;-65
2023/03/24 10:52:44;;;;;;;1.20;1.20;;;;;;;;;;4937563;29;20527;-64
2023/03/24 10:55:13;;;;;;;1.63;1.53;;;;;;;;;;4939245;29;20853;-64
2023/03/24 10:57:42;;;;;;;1.50;1.50;;;;;;;;;;4939215;29;20423;-65
2023/03/24 11:00:18;;;;;;;1.53;1.43;;;;;;;;;;4939174;29;20420;-65
2023/03/24 11:02:44;;;;;;;1.10;1.10;;;;;;;;;;4938894;29;20448;-64
2023/03/24 11:05:15;;;;;;;6.53;1.10;;;;;;;;;;4939169;29;20420;-66
2023/03/24 11:07:43;;;;;;;0.87;0.87;;;;;;;;;;4938932;29;20519;-66
2023/03/24 11:10:09;;;;;;;2.20;1.50;;;;;;;;;;4938896;29;20539;-66
2023/03/24 11:12:37;;;;;;;0.90;0.90;;;;;;;;;;4938847;29;20522;-66
2023/03/24 11:15:03;;;;;;;1.03;1.03;;;;;;;;;;4937805;29;20483;-66
2023/03/24 11:17:29;;;;;;;0.90;0.90;;;;;;;;;;4937614;29;20428;-66
2023/03/24 11:19:56;;;;;;;5.63;0.90;;;;;;;;;;4937843;29;20450;-65
2023/03/24 11:22:22;;;;;;;1.30;1.20;;;;;;;;;;4938248;29;20444;-65
2023/03/24 11:24:51;;;;;;;1.13;1.10;;;;;;;;;;4938803;29;20416;-65
2023/03/24 11:27:18;;;;;;;0.63;0.63;;;;;;;;;;4938675;29;20472;-65
2023/03/24 11:29:45;;;;;;;0.80;0.80;;;;;;;;;;4938713;29;20447;-65
2023/03/24 11:32:12;;;;;;;1.00;0.80;;;;;;;;;;4938451;29;20503;-65
2023/03/24 11:34:44;;;;;;;0.90;0.70;;;;;;;;;;4938272;29;20424;-65
2023/03/24 11:37:21;;;;;;;0.60;0.60;;;;;;;;;;4936888;29;20587;-64
2023/03/24 11:40:06;;;;;;;1.10;1.10;;;;;;;;;;4938506;29;20482;-66
2023/03/24 11:42:32;;;;;;;1.20;1.20;;;;;;;;;;4938244;29;20462;-65
2023/03/24 11:44:59;;;;;;;2.00;0.80;;;;;;;;;;4937966;29;20412;-65
2023/03/24 11:47:37;;;;;;;0.90;0.90;;;;;;;;;;4938090;29;20492;-65
2023/03/24 11:50:09;;;;;;;1.13;0.90;;;;;;;;;;4938036;29;20416;-65
2023/03/24 11:52:38;;;;;;;0.80;0.80;;;;;;;;;;4936807;29;20433;-66
2023/03/24 11:55:12;;;;;;;1.27;0.87;;;;;;;;;;4938137;29;20417;-65
2023/03/24 11:57:38;;;;;;;0.80;0.80;;;;;;;;;;4938312;29;20832;-65
2023/03/24 12:00:08;;;;;;;2.10;0.97;;;;;;;;;;4937938;29;20499;-65
2023/03/24 12:02:46;;;;;;;0.90;0.90;;;;;;;;;;4937767;29;20451;-65
2023/03/24 12:05:31;;;;;;;0.80;0.80;;;;;;;;;;4938277;29;20416;-64
2023/03/24 12:08:06;;;;;;;0.63;0.63;;;;;;;;;;4938137;29;20440;-65
2023/03/24 12:10:32;;;;;;;0.80;0.80;;;;;;;;;;4938080;29;20459;-65
2023/03/24 12:13:17;;;;;;;1.80;0.80;;;;;;;;;;4937867;29;20448;-65
2023/03/24 12:16:03;;;;;;;0.80;0.80;;;;;;;;;;4937999;29;20417;-65
2023/03/24 12:18:40;;;;;;;0.87;0.87;;;;;;;;;;4937547;29;20973;-65
2023/03/24 12:21:21;;;;;;;1.00;1.00;;;;;;;;;;4937804;29;20478;-65
2023/03/24 12:23:55;;;;;;;0.90;0.90;;;;;;;;;;4937949;29;20444;-65
2023/03/24 12:26:31;;;;;;;1.50;0.80;;;;;;;;;;4936410;29;20432;-65
2023/03/24 12:28:57;;;;;;;1.30;1.13;;;;;;;;;;4937471;29;20418;-66
2023/03/24 12:31:41;;;;;;;1.10;1.10;;;;;;;;;;4937510;29;20900;-65
2023/03/24 12:34:20;;;;;;;0.80;0.80;;;;;;;;;;4937193;29;20769;-66
2023/03/24 12:36:54;;;;;;;1.23;1.07;;;;;;;;;;4937432;29;20439;-66
2023/03/24 12:39:31;;;;;;;1.10;1.10;;;;;;;;;;4937106;29;20776;-64
2023/03/24 12:42:05;;;;;;;0.80;0.80;;;;;;;;;;4937559;29;20555;-65
2023/03/24 12:44:34;;;;;;;0.90;0.90;;;;;;;;;;4936090;29;20479;-65
2023/03/24 12:47:09;;;;;;;0.90;0.90;;;;;;;;;;4937171;29;20416;-66
2023/03/24 12:49:51;;;;;;;1.33;1.20;;;;;;;;;;4937272;29;20934;-65
2023/03/24 12:52:25;;;;;;;1.80;0.80;;;;;;;;;;4937375;29;20431;-65
2023/03/24 12:55:05;;;;;;;0.80;0.80;;;;;;;;;;4937439;29;20508;-64
2023/03/24 12:57:40;;;;;;;1.10;1.10;;;;;;;;;;4937035;29;20892;-65
2023/03/24 13:00:11;;;;;;;1.07;1.07;;;;;;;;;;4937020;29;20476;-65
2023/03/24 13:02:37;;;;;;;0.90;0.90;;;;;;;;;;4937060;29;20459;-65
2023/03/24 13:05:07;;;;;;;1.10;1.10;;;;;;;;;;4937109;29;20412;-65
2023/03/24 13:07:42;;;;;;;1.03;1.03;;;;;;;;;;4936868;29;20417;-65
2023/03/24 13:10:24;;;;;;;1.17;1.07;;;;;;;;;;4936657;29;20459;-65
2023/03/24 13:12:59;;;;;;;0.80;0.80;;;;;;;;;;4936589;29;20440;-64
2023/03/24 13:15:30;;;;;;;1.00;1.00;;;;;;;;;;4936071;29;21000;-65
2023/03/24 13:17:56;;;;;;;1.00;1.00;;;;;;;;;;4936861;29;20846;-65
2023/03/24 13:20:26;;;;;;;0.60;0.60;;;;;;;;;;4936250;29;20502;-65
2023/03/24 13:22:52;;;;;;;2.73;1.10;;;;;;;;;;4936395;29;20532;-65
2023/03/24 13:25:24;;;;;;;0.80;0.80;;;;;;;;;;4936680;29;20467;-65
2023/03/24 13:27:53;;;;;;;0.80;0.80;;;;;;;;;;4936487;29;20436;-65
2023/03/24 13:30:19;;;;;;;1.50;1.40;;;;;;;;;;4936615;29;20416;-64
2023/03/24 13:32:49;;;;;;;0.90;0.87;;;;;;;;;;4936448;29;20430;-65
2023/03/24 13:35:20;;;;;;;3.87;3.47;;;;;;;;;;4936409;29;22113;-65
2023/03/24 13:37:48;;;;;;;1.13;1.13;;;;;;;;;;4935868;29;20429;-65
2023/03/24 13:40:24;;;;;;;1.50;1.50;;;;;;;;;;4936299;29;20777;-65
2023/03/24 13:42:59;;;;;;;1.00;1.00;;;;;;;;;;4936713;29;20495;-65
2023/03/24 13:45:34;;;;;;;1.43;0.70;;;;;;;;;;4936619;29;20411;-64
2023/03/24 13:48:11;;;;;;;0.90;0.90;;;;;;;;;;4936594;29;21067;-65
2023/03/24 13:50:39;;;;;;;1.67;1.00;;;;;;;;;;4936404;29;20488;-65
2023/03/24 13:53:06;;;;;;;0.80;0.80;;;;;;;;;;4936405;29;20447;-64
2023/03/24 13:55:35;;;;;;;0.70;0.70;;;;;;;;;;4936221;29;20408;-65
2023/03/24 13:58:19;;;;;;;0.70;0.70;;;;;;;;;;4936040;29;20420;-65
2023/03/24 14:01:05;;;;;;;0.87;0.87;;;;;;;;;;4936071;29;20456;-64
2023/03/24 14:03:33;;;;;;;0.70;0.70;;;;;;;;;;4935961;29;20454;-64
2023/03/24 14:06:01;;;;;;;2.33;1.27;;;;;;;;;;4936117;29;20398;-64
2023/03/24 14:08:34;;;;;;;1.30;1.30;;;;;;;;;;4936041;29;20442;-64
2023/03/24 14:11:00;;;;;;;0.83;0.83;;;;;;;;;;4935451;29;20515;-64
2023/03/24 14:13:34;;;;;;;1.03;1.03;;;;;;;;;;4935958;29;20527;-67
2023/03/24 14:16:20;;;;;;;0.90;0.90;;;;;;;;;;4935898;29;20507;-65
2023/03/24 14:18:47;;;;;;;0.60;0.60;;;;;;;;;;4935536;29;20440;-64
2023/03/24 14:21:13;;;;;;;1.27;1.00;;;;;;;;;;4935767;29;21199;-64
2023/03/24 14:23:48;;;;;;;0.87;0.87;;;;;;;;;;4934437;29;20518;-64
2023/03/24 14:26:14;;;;;;;0.90;0.80;;;;;;;;;;4935786;29;20775;-65
2023/03/24 14:28:58;;;;;;;1.03;1.03;;;;;;;;;;4935311;29;20779;-64
2023/03/24 14:31:34;;;;;;;1.20;1.20;;;;;;;;;;4935860;29;20454;-64
2023/03/24 14:34:24;;;;;;;1.47;1.07;;;;;;;;;;4935599;29;21006;-64
2023/03/24 14:36:58;;;;;;;0.80;0.80;;;;;;;;;;4935662;29;20444;-64
2023/03/24 14:39:25;;;;;;;2.20;0.90;;;;;;;;;;4935539;29;20454;-64
2023/03/24 14:41:51;;;;;;;2.30;0.90;;;;;;;;;;4935367;29;20566;-64
2023/03/24 14:44:38;;;;;;;0.90;0.90;;;;;;;;;;4935533;29;20436;-64
2023/03/24 14:47:04;;;;;;;0.90;0.90;;;;;;;;;;4935461;29;20800;-64
2023/03/24 14:49:31;;;;;;;1.60;1.10;;;;;;;;;;4935551;29;20436;-65
2023/03/24 14:52:03;;;;;;;2.10;1.00;;;;;;;;;;4935507;29;20455;-65
2023/03/24 14:54:50;;;;;;;1.63;1.03;;;;;;;;;;4935584;29;20900;-65
2023/03/24 14:57:22;;;;;;;0.70;0.70;;;;;;;;;;4940858;28;20484;-65
2023/03/24 14:59:54;;;;;;;1.10;1.10;;;;;;;;;;4935423;29;20440;-64
2023/03/24 15:02:26;;;;;;;1.37;1.27;;;;;;;;;;4935208;29;20467;-64